createdAt,value
2017-06-19T00:00:59.695Z,20.70
2017-06-19T00:03:27.206Z,20.70
2017-06-19T00:05:54.657Z,20.70
2017-06-19T00:08:22.135Z,20.60
2017-06-19T00:10:49.606Z,20.60
2017-06-19T00:13:17.130Z,20.50
2017-06-19T00:15:44.606Z,20.40
2017-06-19T00:18:12.090Z,20.50
2017-06-19T00:20:39.551Z,20.40
2017-06-19T00:23:13.370Z,20.30
2017-06-19T00:25:41.634Z,20.30
2017-06-19T00:28:09.883Z,20.30
2017-06-19T00:30:37.350Z,20.30
2017-06-19T00:33:04.792Z,20.30
2017-06-19T00:35:32.277Z,20.30
2017-06-19T00:37:59.730Z,20.20
2017-06-19T00:40:27.259Z,20.30
2017-06-19T00:42:54.722Z,20.30
2017-06-19T00:45:22.183Z,20.30
2017-06-19T00:47:49.638Z,20.30
2017-06-19T00:50:17.113Z,20.30
2017-06-19T00:52:44.646Z,20.20
2017-06-19T00:55:12.079Z,19.90
2017-06-19T00:57:39.565Z,19.90
2017-06-19T01:00:07.010Z,19.90
2017-06-19T01:02:34.470Z,19.90
2017-06-19T01:05:01.926Z,19.90
2017-06-19T01:07:29.379Z,20.00
2017-06-19T01:09:57.020Z,19.90
2017-06-19T01:12:24.595Z,20.00
2017-06-19T01:14:52.051Z,19.90
2017-06-19T01:17:19.524Z,19.90
2017-06-19T01:19:46.965Z,19.90
2017-06-19T01:22:14.425Z,19.90
2017-06-19T01:24:41.907Z,19.90
2017-06-19T01:27:09.474Z,19.80
2017-06-19T01:29:37.706Z,19.80
2017-06-19T01:32:05.190Z,19.80
2017-06-19T01:34:32.645Z,19.80
2017-06-19T01:37:00.197Z,19.70
2017-06-19T01:39:27.634Z,19.60
2017-06-19T01:41:55.113Z,19.70
2017-06-19T01:44:22.553Z,19.70
2017-06-19T01:46:49.991Z,19.80
2017-06-19T01:49:17.474Z,19.80
2017-06-19T01:51:45.027Z,19.80
2017-06-19T01:54:12.491Z,19.90
2017-06-19T01:56:39.947Z,19.90
2017-06-19T01:59:07.519Z,19.90
2017-06-19T02:01:35.062Z,19.90
2017-06-19T02:04:02.518Z,19.80
2017-06-19T02:06:29.995Z,19.70
2017-06-19T02:08:57.539Z,19.70
2017-06-19T02:11:25.015Z,19.70
2017-06-19T02:13:52.543Z,19.60
2017-06-19T02:16:20.021Z,19.70
2017-06-19T02:18:47.448Z,19.50
2017-06-19T02:21:14.918Z,19.50
2017-06-19T02:23:42.363Z,19.50
2017-06-19T02:26:09.958Z,19.50
2017-06-19T02:28:37.486Z,19.60
2017-06-19T02:31:05.023Z,19.60
2017-06-19T02:33:32.538Z,19.60
2017-06-19T02:35:59.979Z,19.60
2017-06-19T02:38:27.412Z,19.50
2017-06-19T02:40:54.873Z,19.50
2017-06-19T02:43:22.322Z,19.60
2017-06-19T02:45:49.787Z,19.50
2017-06-19T02:48:17.230Z,19.40
2017-06-19T02:50:44.681Z,19.40
2017-06-19T02:53:12.166Z,19.30
2017-06-19T02:55:39.634Z,19.30
2017-06-19T02:58:07.171Z,19.40
2017-06-19T03:00:34.627Z,19.40
2017-06-19T03:03:02.178Z,19.50
2017-06-19T03:05:29.662Z,19.40
2017-06-19T03:07:57.111Z,19.30
2017-06-19T03:10:39.446Z,19.20
2017-06-19T03:13:06.915Z,19.30
2017-06-19T03:15:34.417Z,19.40
2017-06-19T03:18:01.975Z,19.50
2017-06-19T03:20:29.532Z,19.50
2017-06-19T03:22:57.095Z,19.50
2017-06-19T03:25:24.655Z,19.60
2017-06-19T03:27:52.112Z,19.60
2017-06-19T03:30:19.582Z,19.70
2017-06-19T03:32:47.196Z,19.70
2017-06-19T03:35:14.688Z,20.00
2017-06-19T03:37:42.193Z,20.00
2017-06-19T03:40:09.671Z,19.80
2017-06-19T03:42:37.121Z,19.70
2017-06-19T03:45:04.542Z,19.60
2017-06-19T03:47:32.004Z,19.70
2017-06-19T03:49:59.522Z,19.70
2017-06-19T03:52:27.123Z,19.90
2017-06-19T03:54:54.626Z,20.00
2017-06-19T03:57:22.098Z,20.20
2017-06-19T03:59:49.643Z,20.30
2017-06-19T04:02:17.183Z,20.40
2017-06-19T04:04:44.713Z,20.60
2017-06-19T04:07:12.939Z,21.00
2017-06-19T04:09:40.390Z,20.90
2017-06-19T04:12:07.842Z,21.10
2017-06-19T04:14:35.306Z,21.20
2017-06-19T04:17:02.764Z,21.40
2017-06-19T04:19:30.215Z,21.50
2017-06-19T04:21:57.670Z,21.60
2017-06-19T04:24:25.178Z,21.70
2017-06-19T04:26:53.402Z,21.80
2017-06-19T04:29:20.862Z,21.70
2017-06-19T04:31:48.334Z,21.60
2017-06-19T04:34:15.791Z,21.90
2017-06-19T04:36:43.351Z,22.00
2017-06-19T04:39:10.786Z,21.90
2017-06-19T04:41:38.242Z,21.80
2017-06-19T04:44:05.703Z,21.70
2017-06-19T04:46:33.148Z,21.60
2017-06-19T04:49:00.746Z,21.60
2017-06-19T04:51:28.186Z,21.60
2017-06-19T04:53:55.653Z,21.60
2017-06-19T04:56:23.145Z,21.60
2017-06-19T04:58:50.645Z,21.70
2017-06-19T05:01:18.091Z,21.90
2017-06-19T05:03:45.635Z,22.00
2017-06-19T05:06:13.140Z,22.10
2017-06-19T05:08:40.678Z,22.10
2017-06-19T05:11:08.139Z,22.20
2017-06-19T05:13:35.590Z,22.30
2017-06-19T05:16:03.031Z,22.30
2017-06-19T05:18:30.504Z,22.30
2017-06-19T05:20:58.036Z,22.40
2017-06-19T05:23:25.506Z,22.40
2017-06-19T05:25:52.971Z,22.40
2017-06-19T05:28:20.454Z,22.40
2017-06-19T05:30:47.991Z,22.40
2017-06-19T05:33:15.575Z,22.50
2017-06-19T05:35:43.024Z,22.50
2017-06-19T05:38:10.470Z,22.40
2017-06-19T05:40:38.004Z,22.50
2017-06-19T05:43:05.477Z,22.50
2017-06-19T05:45:33.040Z,22.50
2017-06-19T05:48:00.492Z,22.50
2017-06-19T05:50:28.020Z,22.60
2017-06-19T05:52:55.516Z,22.60
2017-06-19T05:55:22.992Z,22.60
2017-06-19T05:57:51.297Z,22.80
2017-06-19T06:00:18.964Z,22.70
2017-06-19T06:02:46.531Z,22.90
2017-06-19T06:05:14.007Z,23.00
2017-06-19T06:07:41.556Z,23.20
2017-06-19T06:10:09.109Z,23.40
2017-06-19T06:12:36.599Z,23.40
2017-06-19T06:15:04.039Z,23.40
2017-06-19T06:17:31.509Z,23.30
2017-06-19T06:19:58.951Z,23.30
2017-06-19T06:22:26.489Z,23.20
2017-06-19T06:24:53.972Z,23.20
2017-06-19T06:27:21.507Z,23.40
2017-06-19T06:29:48.985Z,23.40
2017-06-19T06:32:16.431Z,23.50
2017-06-19T06:34:43.916Z,23.60
2017-06-19T06:37:11.415Z,23.70
2017-06-19T06:39:38.999Z,23.70
2017-06-19T06:42:06.451Z,23.70
2017-06-19T06:44:33.918Z,23.70
2017-06-19T06:47:01.368Z,23.70
2017-06-19T06:49:28.842Z,22.40
2017-06-19T06:51:56.395Z,23.70
2017-06-19T06:54:23.931Z,23.70
2017-06-19T06:56:51.591Z,24.00
2017-06-19T06:59:19.040Z,24.10
2017-06-19T07:01:46.484Z,24.30
2017-06-19T07:04:14.003Z,24.40
2017-06-19T07:06:41.498Z,24.30
2017-06-19T07:09:09.018Z,24.20
2017-06-19T07:11:36.589Z,24.30
2017-06-19T07:14:04.822Z,24.50
2017-06-19T07:16:32.257Z,24.50
2017-06-19T07:18:59.738Z,24.60
2017-06-19T07:21:27.279Z,24.70
2017-06-19T07:23:54.838Z,24.80
2017-06-19T07:26:22.291Z,24.90
2017-06-19T07:28:49.762Z,25.00
2017-06-19T07:31:17.223Z,25.00
2017-06-19T07:33:44.795Z,25.10
2017-06-19T07:36:12.320Z,25.00
2017-06-19T07:38:39.787Z,24.90
2017-06-19T07:41:07.262Z,24.90
2017-06-19T07:43:34.752Z,24.80
2017-06-19T07:46:02.990Z,23.60
2017-06-19T07:48:30.446Z,24.90
2017-06-19T07:50:57.911Z,25.10
2017-06-19T07:53:25.375Z,25.20
2017-06-19T07:55:52.819Z,25.30
2017-06-19T07:58:20.255Z,25.30
2017-06-19T08:00:47.711Z,25.20
2017-06-19T08:03:15.146Z,25.30
2017-06-19T08:05:42.602Z,25.40
2017-06-19T08:08:10.038Z,25.40
2017-06-19T08:10:38.298Z,25.60
2017-06-19T08:13:05.767Z,25.50
2017-06-19T08:15:34.006Z,25.50
2017-06-19T08:18:01.482Z,25.40
2017-06-19T08:20:29.718Z,25.50
2017-06-19T08:22:57.187Z,25.50
2017-06-19T08:25:24.639Z,25.60
2017-06-19T08:27:52.245Z,25.70
2017-06-19T08:30:20.480Z,25.80
2017-06-19T08:32:47.964Z,25.70
2017-06-19T08:35:15.391Z,26.10
2017-06-19T08:37:42.839Z,26.30
2017-06-19T08:40:10.290Z,26.50
2017-06-19T08:42:37.751Z,26.60
2017-06-19T08:45:05.203Z,26.60
2017-06-19T08:47:32.688Z,26.70
2017-06-19T08:50:00.126Z,26.60
2017-06-19T08:52:27.559Z,26.30
2017-06-19T08:54:55.070Z,26.10
2017-06-19T08:57:22.527Z,26.10
2017-06-19T08:59:50.086Z,26.00
2017-06-19T09:02:17.645Z,26.10
2017-06-19T09:04:45.920Z,25.90
2017-06-19T09:07:14.234Z,25.90
2017-06-19T09:09:41.805Z,25.90
2017-06-19T09:12:09.860Z,25.90
2017-06-19T09:14:37.302Z,25.90
2017-06-19T09:17:05.067Z,26.00
2017-06-19T09:19:32.537Z,26.00
2017-06-19T09:22:00.148Z,25.90
2017-06-19T09:24:27.571Z,26.00
2017-06-19T09:26:55.956Z,26.20
2017-06-19T09:29:25.153Z,26.20
2017-06-19T09:31:53.466Z,26.40
2017-06-19T09:34:20.882Z,26.30
2017-06-19T09:36:49.168Z,26.40
2017-06-19T09:39:16.822Z,26.40
2017-06-19T09:41:44.286Z,26.30
2017-06-19T09:44:11.769Z,26.20
2017-06-19T09:46:39.440Z,26.40
2017-06-19T09:49:07.741Z,26.40
2017-06-19T09:51:35.219Z,26.40
2017-06-19T09:54:02.685Z,26.60
2017-06-19T09:56:30.123Z,26.70
2017-06-19T09:58:57.634Z,26.70
2017-06-19T10:01:25.114Z,26.70
2017-06-19T10:03:52.639Z,26.70
2017-06-19T10:06:20.118Z,26.70
2017-06-19T10:08:48.535Z,27.20
2017-06-19T10:11:16.031Z,27.20
2017-06-19T10:13:44.324Z,27.60
2017-06-19T10:16:12.603Z,27.50
2017-06-19T10:18:40.069Z,27.50
2017-06-19T10:21:08.265Z,27.80
2017-06-19T10:23:35.795Z,27.80
2017-06-19T10:26:03.281Z,28.00
2017-06-19T10:28:30.767Z,28.40
2017-06-19T10:30:58.358Z,28.70
2017-06-19T10:33:26.574Z,29.00
2017-06-19T10:35:54.040Z,29.00
2017-06-19T10:38:21.463Z,29.20
2017-06-19T10:40:49.006Z,29.30
2017-06-19T10:43:17.235Z,28.50
2017-06-19T10:45:44.722Z,28.50
2017-06-19T10:48:12.147Z,28.20
2017-06-19T10:50:39.639Z,28.40
2017-06-19T10:53:07.888Z,28.90
2017-06-19T10:55:35.370Z,28.90
2017-06-19T10:58:03.594Z,29.20
2017-06-19T11:00:31.073Z,29.10
2017-06-19T11:02:58.911Z,29.10
2017-06-19T11:05:26.353Z,29.20
2017-06-19T11:07:53.823Z,29.30
2017-06-19T11:10:21.360Z,29.60
2017-06-19T11:12:48.812Z,29.50
2017-06-19T11:15:16.252Z,29.20
2017-06-19T11:17:44.490Z,29.20
2017-06-19T11:20:12.051Z,29.10
2017-06-19T11:22:39.497Z,28.90
2017-06-19T11:25:06.956Z,28.80
2017-06-19T11:27:34.388Z,28.80
2017-06-19T11:30:01.946Z,28.90
2017-06-19T11:32:29.435Z,29.00
2017-06-19T11:34:56.883Z,28.90
2017-06-19T11:37:24.336Z,29.00
2017-06-19T11:39:51.810Z,29.20
2017-06-19T11:42:19.249Z,29.20
2017-06-19T11:44:46.674Z,29.40
2017-06-19T11:47:14.102Z,29.70
2017-06-19T11:49:42.320Z,30.20
2017-06-19T11:52:09.763Z,30.10
2017-06-19T11:54:37.251Z,30.30
2017-06-19T11:57:04.711Z,30.20
2017-06-19T11:59:32.253Z,30.30
2017-06-19T12:01:59.703Z,30.30
2017-06-19T12:04:27.160Z,30.40
2017-06-19T12:06:54.612Z,30.50
2017-06-19T12:09:22.045Z,30.50
2017-06-19T12:11:50.246Z,29.50
2017-06-19T12:14:17.701Z,29.40
2017-06-19T12:16:45.122Z,29.30
2017-06-19T12:19:13.434Z,29.00
2017-06-19T12:21:40.904Z,29.00
2017-06-19T12:24:08.352Z,29.10
2017-06-19T12:26:35.831Z,29.30
2017-06-19T12:29:03.270Z,29.60
2017-06-19T12:31:30.735Z,29.30
2017-06-19T12:33:58.199Z,29.00
2017-06-19T12:36:25.642Z,28.90
2017-06-19T12:38:53.191Z,28.90
2017-06-19T12:41:20.627Z,28.70
2017-06-19T12:43:48.863Z,28.60
2017-06-19T12:46:16.387Z,28.60
2017-06-19T12:48:43.882Z,28.40
2017-06-19T12:51:11.501Z,28.30
2017-06-19T12:53:38.922Z,28.20
2017-06-19T12:56:06.414Z,28.30
2017-06-19T12:58:33.855Z,28.30
2017-06-19T13:01:01.420Z,28.30
2017-06-19T13:03:28.981Z,28.30
2017-06-19T13:05:56.444Z,28.60
2017-06-19T13:08:23.915Z,28.90
2017-06-19T13:10:51.347Z,29.00
2017-06-19T13:13:18.787Z,28.90
2017-06-19T13:15:46.298Z,28.90
2017-06-19T13:18:13.758Z,29.20
2017-06-19T13:20:41.279Z,29.50
2017-06-19T13:23:08.735Z,29.90
2017-06-19T13:25:36.290Z,30.20
2017-06-19T13:28:03.762Z,29.70
2017-06-19T13:30:31.206Z,29.30
2017-06-19T13:32:58.651Z,29.30
2017-06-19T13:35:26.216Z,29.40
2017-06-19T13:37:53.715Z,29.70
2017-06-19T13:40:21.263Z,30.10
2017-06-19T13:42:48.724Z,30.00
2017-06-19T13:45:16.211Z,30.00
2017-06-19T13:47:43.631Z,30.00
2017-06-19T13:50:11.074Z,29.70
2017-06-19T13:52:38.526Z,29.80
2017-06-19T13:55:05.998Z,29.90
2017-06-19T13:57:33.478Z,29.90
2017-06-19T14:00:01.025Z,30.10
2017-06-19T14:02:28.566Z,30.40
2017-06-19T14:04:56.040Z,30.80
2017-06-19T14:07:23.507Z,31.20
2017-06-19T14:09:50.987Z,31.50
2017-06-19T14:12:19.183Z,31.20
2017-06-19T14:14:46.616Z,31.10
2017-06-19T14:17:14.151Z,30.40
2017-06-19T14:19:41.582Z,30.00
2017-06-19T14:22:09.217Z,29.70
2017-06-19T14:24:36.680Z,29.80
2017-06-19T14:27:04.134Z,30.20
2017-06-19T14:29:31.563Z,30.50
2017-06-19T14:31:59.044Z,30.90
2017-06-19T14:34:26.524Z,31.30
2017-06-19T14:36:53.991Z,31.70
2017-06-19T14:39:21.503Z,31.60
2017-06-19T14:41:48.991Z,31.50
2017-06-19T14:44:16.438Z,31.20
2017-06-19T14:46:43.962Z,31.30
2017-06-19T14:49:11.467Z,31.70
2017-06-19T14:51:38.954Z,31.80
2017-06-19T14:54:07.195Z,32.00
2017-06-19T14:56:34.754Z,32.00
2017-06-19T14:59:02.965Z,32.30
2017-06-19T15:01:31.233Z,33.60
2017-06-19T15:03:58.702Z,31.90
2017-06-19T15:06:27.013Z,32.20
2017-06-19T15:08:54.526Z,32.10
2017-06-19T15:11:22.848Z,32.90
2017-06-19T15:13:50.333Z,32.90
2017-06-19T15:16:17.863Z,34.00
2017-06-19T15:18:45.276Z,35.30
2017-06-19T15:21:31.324Z,38.30
2017-06-19T15:23:58.759Z,38.10
2017-06-19T15:26:26.211Z,40.00
2017-06-19T15:28:53.799Z,41.60
2017-06-19T15:31:21.339Z,42.60
2017-06-19T15:33:48.786Z,43.70
2017-06-19T15:36:16.298Z,43.10
2017-06-19T15:38:43.758Z,43.20
2017-06-19T15:41:11.300Z,44.20
2017-06-19T15:43:38.763Z,45.60
2017-06-19T15:46:06.298Z,46.10
2017-06-19T15:48:33.839Z,45.10
2017-06-19T15:51:01.266Z,46.20
2017-06-19T15:53:28.783Z,45.90
2017-06-19T15:55:56.215Z,44.40
2017-06-19T15:58:24.102Z,41.90
2017-06-19T16:00:51.558Z,40.10
2017-06-19T16:03:19.347Z,39.40
2017-06-19T16:05:46.770Z,38.90
2017-06-19T16:08:14.235Z,39.20
2017-06-19T16:10:41.769Z,40.30
2017-06-19T16:13:09.271Z,40.80
2017-06-19T16:15:36.882Z,40.40
2017-06-19T16:18:05.029Z,40.40
2017-06-19T16:20:33.255Z,40.70
2017-06-19T16:23:00.786Z,42.20
2017-06-19T16:25:28.231Z,43.80
2017-06-19T16:27:56.688Z,44.80
2017-06-19T16:30:24.999Z,45.60
2017-06-19T16:32:52.528Z,45.50
2017-06-19T16:35:20.710Z,46.50
2017-06-19T16:37:48.290Z,46.40
2017-06-19T16:40:15.745Z,47.10
2017-06-19T16:42:43.304Z,47.00
2017-06-19T16:45:10.723Z,47.10
2017-06-19T16:47:38.986Z,46.60
2017-06-19T16:50:07.538Z,46.30
2017-06-19T16:52:34.990Z,46.20
2017-06-19T16:55:02.469Z,45.90
2017-06-19T16:57:29.909Z,45.50
2017-06-19T16:59:57.443Z,45.40
2017-06-19T17:02:24.886Z,45.10
2017-06-19T17:04:52.378Z,45.60
2017-06-19T17:07:19.839Z,46.10
2017-06-19T17:09:47.276Z,44.30
2017-06-19T17:12:14.786Z,42.50
2017-06-19T17:14:42.211Z,41.80
2017-06-19T17:17:09.663Z,41.50
2017-06-19T17:19:37.101Z,40.60
2017-06-19T17:22:04.573Z,39.10
2017-06-19T17:24:32.128Z,38.00
2017-06-19T17:26:59.594Z,38.00
2017-06-19T17:29:27.161Z,38.00
2017-06-19T17:31:54.715Z,37.30
2017-06-19T17:34:22.155Z,37.40
2017-06-19T17:36:49.753Z,37.50
2017-06-19T17:39:17.210Z,36.90
2017-06-19T17:41:44.639Z,36.40
2017-06-19T17:44:12.090Z,36.10
2017-06-19T17:46:39.545Z,36.20
2017-06-19T17:49:07.080Z,36.00
2017-06-19T17:51:34.554Z,36.30
2017-06-19T17:54:02.023Z,36.70
2017-06-19T17:56:29.490Z,36.10
2017-06-19T17:58:56.951Z,35.10
2017-06-19T18:01:24.483Z,34.40
2017-06-19T18:03:51.920Z,34.10
2017-06-19T18:06:19.399Z,33.40
2017-06-19T18:08:46.945Z,32.90
2017-06-19T18:11:14.367Z,32.40
2017-06-19T18:13:41.887Z,31.90
2017-06-19T18:16:09.332Z,31.60
2017-06-19T18:18:36.878Z,31.50
2017-06-19T18:21:04.318Z,31.20
2017-06-19T18:23:31.775Z,31.00
2017-06-19T18:25:59.207Z,31.00
2017-06-19T18:28:26.644Z,31.00
2017-06-19T18:30:54.167Z,30.80
2017-06-19T18:33:21.662Z,30.60
2017-06-19T18:35:49.867Z,30.40
2017-06-19T18:38:17.362Z,30.30
2017-06-19T18:40:44.814Z,30.30
2017-06-19T18:43:12.250Z,30.20
2017-06-19T18:45:40.361Z,30.20
2017-06-19T18:48:07.911Z,30.10
2017-06-19T18:50:35.383Z,30.00
2017-06-19T18:53:02.907Z,29.90
2017-06-19T18:55:30.395Z,29.80
2017-06-19T18:57:57.931Z,29.70
2017-06-19T19:00:25.375Z,29.60
2017-06-19T19:02:52.816Z,29.50
2017-06-19T19:05:20.250Z,29.50
2017-06-19T19:07:47.695Z,29.40
2017-06-19T19:10:16.033Z,29.30
2017-06-19T19:12:43.493Z,29.20
2017-06-19T19:15:10.947Z,29.20
2017-06-19T19:17:38.379Z,29.10
2017-06-19T19:20:05.811Z,29.00
2017-06-19T19:22:33.419Z,28.90
2017-06-19T19:25:01.028Z,28.90
2017-06-19T19:27:28.469Z,28.80
2017-06-19T19:29:56.782Z,28.70
2017-06-19T19:32:24.236Z,28.70
2017-06-19T19:34:51.721Z,28.70
2017-06-19T19:37:19.195Z,28.70
2017-06-19T19:39:46.835Z,28.70
2017-06-19T19:42:14.306Z,28.70
2017-06-19T19:44:41.892Z,28.60
2017-06-19T19:47:10.210Z,28.60
2017-06-19T19:49:37.699Z,28.50
2017-06-19T19:52:05.154Z,28.60
2017-06-19T19:54:32.692Z,28.50
2017-06-19T19:57:00.123Z,28.40
2017-06-19T19:59:27.615Z,28.50
2017-06-19T20:01:55.064Z,28.30
2017-06-19T20:04:22.504Z,28.20
2017-06-19T20:06:49.982Z,28.10
2017-06-19T20:09:17.420Z,27.90
2017-06-19T20:11:44.846Z,27.80
2017-06-19T20:14:12.380Z,27.70
2017-06-19T20:16:40.604Z,27.20
2017-06-19T20:19:08.091Z,27.10
2017-06-19T20:21:35.545Z,26.80
2017-06-19T20:24:02.987Z,26.50
2017-06-19T20:26:30.449Z,26.40
2017-06-19T20:28:58.372Z,26.30
2017-06-19T20:31:26.241Z,26.30
2017-06-19T20:33:54.337Z,26.20
2017-06-19T20:36:22.603Z,26.10
2017-06-19T20:38:50.574Z,26.00
2017-06-19T20:41:18.849Z,26.00
2017-06-19T20:43:47.743Z,26.10
2017-06-19T20:46:15.657Z,26.00
2017-06-19T20:48:43.903Z,25.80
2017-06-19T20:51:11.366Z,25.80
2017-06-19T20:53:38.876Z,25.80
2017-06-19T20:56:07.095Z,25.60
2017-06-19T20:58:34.545Z,25.50
2017-06-19T21:01:02.005Z,25.50
2017-06-19T21:03:29.671Z,25.40
2017-06-19T21:05:57.118Z,25.30
2017-06-19T21:08:24.574Z,25.20
2017-06-19T21:10:52.031Z,25.10
2017-06-19T21:13:19.491Z,25.10
2017-06-19T21:15:46.962Z,25.10
2017-06-19T21:18:14.400Z,25.00
2017-06-19T21:20:41.898Z,25.00
2017-06-19T21:23:09.338Z,24.90
2017-06-19T21:25:36.915Z,24.90
2017-06-19T21:28:05.158Z,24.90
2017-06-19T21:30:32.707Z,24.80
2017-06-19T21:33:00.161Z,24.90
2017-06-19T21:35:27.644Z,24.90
2017-06-19T21:37:55.126Z,24.90
2017-06-19T21:40:22.600Z,25.00
2017-06-19T21:42:50.091Z,25.00
2017-06-19T21:45:17.522Z,25.00
2017-06-19T21:47:45.031Z,25.00
2017-06-19T21:50:13.286Z,24.90
2017-06-19T21:52:40.834Z,24.90
2017-06-19T21:55:08.321Z,24.80
2017-06-19T21:57:35.883Z,24.90
2017-06-19T22:00:03.331Z,24.90
2017-06-19T22:02:30.793Z,24.80
2017-06-19T22:04:58.269Z,24.80
2017-06-19T22:07:26.491Z,24.40
2017-06-19T22:09:53.922Z,24.40
2017-06-19T22:12:21.373Z,24.20
2017-06-19T22:14:48.862Z,24.10
2017-06-19T22:17:16.307Z,24.10
2017-06-19T22:19:43.803Z,24.10
2017-06-19T22:22:27.925Z,24.00
2017-06-19T22:24:55.495Z,23.90
2017-06-19T22:27:22.938Z,23.80
2017-06-19T22:29:50.430Z,23.70
2017-06-19T22:32:18.775Z,23.60
2017-06-19T22:34:46.211Z,23.50
2017-06-19T22:37:13.686Z,23.50
2017-06-19T22:39:41.142Z,23.50
2017-06-19T22:42:08.592Z,23.40
2017-06-19T22:44:36.059Z,23.40
2017-06-19T22:47:03.642Z,23.30
2017-06-19T22:49:31.911Z,23.30
2017-06-19T22:51:59.444Z,23.20
2017-06-19T22:54:26.914Z,23.20
2017-06-19T22:56:54.392Z,23.30
2017-06-19T22:59:21.918Z,23.30
2017-06-19T23:01:49.351Z,23.20
2017-06-19T23:04:16.827Z,23.20
2017-06-19T23:06:44.334Z,23.20
2017-06-19T23:09:12.559Z,23.10
2017-06-19T23:11:40.030Z,23.00
2017-06-19T23:14:07.494Z,23.00
2017-06-19T23:16:34.939Z,22.90
2017-06-19T23:19:02.398Z,22.70
2017-06-19T23:21:29.852Z,22.70
2017-06-19T23:23:57.303Z,22.70
2017-06-19T23:26:24.782Z,22.70
2017-06-19T23:28:52.333Z,22.70
2017-06-19T23:31:19.780Z,22.80
2017-06-19T23:33:47.213Z,22.80
2017-06-19T23:36:14.683Z,22.70
2017-06-19T23:38:42.171Z,22.70
2017-06-19T23:41:09.604Z,22.60
2017-06-19T23:43:37.164Z,22.50
2017-06-19T23:46:04.611Z,22.50
2017-06-19T23:48:32.072Z,22.50
2017-06-19T23:50:59.545Z,22.40
2017-06-19T23:53:27.087Z,22.50
2017-06-19T23:55:54.563Z,22.70
2017-06-19T23:58:22.006Z,22.70
